Time;durP1;ratioP1;P1;durP2;ratioP2;P2;SDS_P1;SDS_P2;PMS_P1;PMS_P2;Temp;Humidity;BMP_temperature;BMP_pressure;BME280_temperature;BME280_humidity;BME280_pressure;Samples;Min_cycle;Max_cycle;Signal;HPM_P1;HPM_P2
2023/08/09 00:02:06;;;;;;;1.58;0.70;;;20.90;67.60;;;;;;5053893;28;20067;-62
2023/08/09 00:04:32;;;;;;;2.28;0.68;;;20.90;67.70;;;;;;5052167;28;20072;-62
2023/08/09 00:06:57;;;;;;;2.03;0.68;;;20.90;67.60;;;;;;5052470;28;20096;-62
2023/08/09 00:09:23;;;;;;;2.92;1.02;;;20.90;67.70;;;;;;5052486;28;20041;-62
2023/08/09 00:11:49;;;;;;;2.40;0.68;;;20.90;67.70;;;;;;5052778;28;20045;-62
2023/08/09 00:14:14;;;;;;;1.90;0.70;;;20.90;67.70;;;;;;5055269;28;20483;-62
2023/08/09 00:16:40;;;;;;;1.85;0.60;;;20.90;67.70;;;;;;5064214;28;20044;-62
2023/08/09 00:19:05;;;;;;;2.22;0.70;;;20.90;67.70;;;;;;5072765;28;20053;-62
2023/08/09 00:21:31;;;;;;;1.30;0.63;;;20.90;67.70;;;;;;5073336;28;20052;-62
2023/08/09 00:23:58;;;;;;;2.35;0.80;;;20.90;67.70;;;;;;5071538;28;20049;-62
2023/08/09 00:26:25;;;;;;;1.33;0.70;;;20.90;67.80;;;;;;5072728;28;20044;-62
2023/08/09 00:28:52;;;;;;;2.38;0.82;;;20.90;67.80;;;;;;5072995;28;20044;-62
2023/08/09 00:31:17;;;;;;;3.22;0.70;;;20.80;67.70;;;;;;5071749;28;20480;-62
2023/08/09 00:33:43;;;;;;;1.10;0.60;;;20.90;67.80;;;;;;5072069;28;20041;-61
2023/08/09 00:36:09;;;;;;;1.25;0.73;;;20.80;67.80;;;;;;5072899;28;20036;-61
2023/08/09 00:38:36;;;;;;;2.08;0.80;;;20.80;67.80;;;;;;5072914;28;20415;-62
2023/08/09 00:41:01;;;;;;;3.28;0.77;;;20.80;67.80;;;;;;5072119;28;20080;-61
2023/08/09 00:43:27;;;;;;;2.88;0.70;;;20.80;67.80;;;;;;5073217;28;20113;-62
2023/08/09 00:45:53;;;;;;;1.38;0.60;;;20.80;67.80;;;;;;5072869;28;20322;-62
2023/08/09 00:48:18;;;;;;;2.22;0.70;;;20.80;67.90;;;;;;5070771;28;20044;-62
2023/08/09 00:50:44;;;;;;;2.80;0.85;;;20.80;67.90;;;;;;5054790;28;20056;-61
2023/08/09 00:53:10;;;;;;;3.35;0.80;;;20.80;67.90;;;;;;5071342;28;20036;-61
2023/08/09 00:55:35;;;;;;;3.33;0.95;;;20.80;67.90;;;;;;5071957;28;20056;-62
2023/08/09 00:58:01;;;;;;;1.63;0.60;;;20.80;67.90;;;;;;5071844;28;20064;-62
2023/08/09 01:00:26;;;;;;;2.10;0.90;;;20.80;67.90;;;;;;5072566;28;20066;-61
2023/08/09 01:02:52;;;;;;;2.15;0.80;;;20.80;67.90;;;;;;5071580;28;20037;-62
2023/08/09 01:05:18;;;;;;;2.60;0.90;;;20.80;68.00;;;;;;5070765;28;20079;-62
2023/08/09 01:07:52;;;;;;;2.60;0.73;;;20.80;68.00;;;;;;5071809;28;20052;-62
2023/08/09 01:10:41;;;;;;;1.55;0.70;;;20.80;68.00;;;;;;5070944;28;20090;-61
2023/08/09 01:13:06;;;;;;;2.20;0.80;;;20.80;67.90;;;;;;5071462;28;20048;-62
2023/08/09 01:15:33;;;;;;;2.85;0.98;;;20.80;68.00;;;;;;5070626;28;20044;-62
2023/08/09 01:17:58;;;;;;;1.70;0.70;;;20.70;67.90;;;;;;5071215;28;20135;-62
2023/08/09 01:20:25;;;;;;;2.83;0.90;;;20.80;68.00;;;;;;5054039;28;20131;-61
2023/08/09 01:23:02;;;;;;;2.15;0.80;;;20.80;68.00;;;;;;5069905;28;20048;-61
2023/08/09 01:25:28;;;;;;;2.50;0.90;;;20.70;68.00;;;;;;5072604;28;20115;-61
2023/08/09 01:27:54;;;;;;;2.40;0.80;;;20.70;68.00;;;;;;5071113;28;20102;-61
2023/08/09 01:30:20;;;;;;;1.15;0.68;;;20.70;68.00;;;;;;5070249;28;20044;-61
2023/08/09 01:32:46;;;;;;;2.75;0.80;;;20.70;68.00;;;;;;5071639;28;20147;-62
2023/08/09 01:35:11;;;;;;;2.08;0.88;;;20.70;68.00;;;;;;5072444;28;20055;-61
2023/08/09 01:37:46;;;;;;;1.92;0.90;;;20.70;68.00;;;;;;5052938;28;20127;-61
2023/08/09 01:40:12;;;;;;;2.38;0.90;;;20.70;68.00;;;;;;5071282;28;20048;-61
2023/08/09 01:42:39;;;;;;;1.95;0.82;;;20.70;68.00;;;;;;5070851;28;20139;-61
2023/08/09 01:45:06;;;;;;;3.53;1.00;;;20.70;68.00;;;;;;5070177;28;20411;-61
2023/08/09 01:47:32;;;;;;;3.03;0.90;;;20.70;68.00;;;;;;5054769;28;20052;-62
2023/08/09 01:49:58;;;;;;;1.98;0.90;;;20.70;68.00;;;;;;5070830;28;20099;-61
2023/08/09 01:52:24;;;;;;;1.73;0.90;;;20.70;68.00;;;;;;5071476;28;20491;-61
2023/08/09 01:54:49;;;;;;;2.13;0.77;;;20.70;68.00;;;;;;5071982;28;20399;-61
2023/08/09 01:57:15;;;;;;;1.63;0.50;;;20.70;68.00;;;;;;5071702;28;20484;-61
2023/08/09 01:59:42;;;;;;;1.88;0.90;;;20.70;68.00;;;;;;5071799;28;20052;-61
2023/08/09 02:02:08;;;;;;;2.22;1.02;;;20.70;68.00;;;;;;5072085;28;20052;-61
2023/08/09 02:04:33;;;;;;;2.58;0.88;;;20.70;68.00;;;;;;5073157;28;20036;-61
2023/08/09 02:06:59;;;;;;;2.17;0.70;;;20.70;68.00;;;;;;5075396;28;20047;-61
2023/08/09 02:09:26;;;;;;;2.75;0.93;;;20.70;68.00;;;;;;5075884;28;20526;-62
2023/08/09 02:11:53;;;;;;;2.30;0.85;;;20.70;68.00;;;;;;5075028;28;20056;-61
2023/08/09 02:14:18;;;;;;;2.10;0.80;;;20.60;68.00;;;;;;5075927;28;20033;-61
2023/08/09 02:16:44;;;;;;;2.78;0.82;;;20.70;68.00;;;;;;5074187;28;20059;-61
2023/08/09 02:19:09;;;;;;;2.05;0.90;;;20.60;68.00;;;;;;5073682;28;20050;-61
2023/08/09 02:21:37;;;;;;;2.17;0.70;;;20.60;68.10;;;;;;5075505;28;20040;-61
2023/08/09 02:24:04;;;;;;;2.25;0.90;;;20.60;68.10;;;;;;5074250;28;20044;-62
2023/08/09 02:26:29;;;;;;;2.30;0.80;;;20.70;68.10;;;;;;5074800;28;20044;-61
2023/08/09 02:28:55;;;;;;;1.23;0.70;;;20.60;68.10;;;;;;5075403;28;20487;-61
2023/08/09 02:31:21;;;;;;;1.88;0.70;;;20.60;68.20;;;;;;5075427;28;20049;-62
2023/08/09 02:33:46;;;;;;;1.80;0.90;;;20.60;68.20;;;;;;5074535;28;20123;-61
2023/08/09 02:36:12;;;;;;;1.65;0.80;;;20.60;68.20;;;;;;5075132;28;20048;-61
2023/08/09 02:38:37;;;;;;;1.67;0.90;;;20.60;68.20;;;;;;5075122;28;20063;-61
2023/08/09 02:41:04;;;;;;;2.78;1.05;;;20.60;68.20;;;;;;5074630;28;20127;-61
2023/08/09 02:43:30;;;;;;;1.08;0.70;;;20.60;68.20;;;;;;5074969;28;20040;-62
2023/08/09 02:45:56;;;;;;;2.65;0.90;;;20.60;68.20;;;;;;5075271;28;20119;-61
2023/08/09 02:48:22;;;;;;;5.28;0.95;;;20.60;68.30;;;;;;5074748;28;20048;-62
2023/08/09 02:50:48;;;;;;;1.45;0.77;;;20.60;68.20;;;;;;5073627;28;20033;-61
2023/08/09 02:53:14;;;;;;;1.52;0.95;;;20.60;68.30;;;;;;5075234;28;20044;-61
2023/08/09 02:55:40;;;;;;;1.73;1.00;;;20.60;68.30;;;;;;5074205;28;20037;-61
2023/08/09 02:58:05;;;;;;;1.30;0.80;;;20.60;68.30;;;;;;5074723;28;20117;-61
2023/08/09 03:00:32;;;;;;;2.30;0.80;;;20.60;68.30;;;;;;5074384;28;20044;-61
2023/08/09 03:03:00;;;;;;;2.58;0.90;;;20.60;68.30;;;;;;5074799;28;20044;-61
2023/08/09 03:05:27;;;;;;;1.77;0.90;;;20.60;68.30;;;;;;5074886;28;20044;-61
2023/08/09 03:07:53;;;;;;;2.78;1.00;;;20.60;68.30;;;;;;5073628;28;20099;-61
2023/08/09 03:10:18;;;;;;;1.80;0.77;;;20.50;68.30;;;;;;5074730;28;20411;-61
2023/08/09 03:12:44;;;;;;;1.88;0.93;;;20.60;68.90;;;;;;5074288;28;20052;-61
2023/08/09 03:15:10;;;;;;;2.50;0.98;;;20.60;68.30;;;;;;5074330;28;20488;-61
2023/08/09 03:17:36;;;;;;;1.95;0.85;;;20.60;68.30;;;;;;5074282;28;20083;-61
2023/08/09 03:20:13;;;;;;;1.98;0.90;;;20.60;68.30;;;;;;5074437;28;20050;-61
2023/08/09 03:22:43;;;;;;;2.40;1.02;;;20.60;68.30;;;;;;5072234;28;20049;-61
2023/08/09 03:25:09;;;;;;;1.92;1.00;;;20.50;68.30;;;;;;5074340;28;20068;-61
2023/08/09 03:27:35;;;;;;;1.90;0.90;;;20.60;68.30;;;;;;5074257;28;20040;-62
2023/08/09 03:30:01;;;;;;;2.72;0.90;;;20.50;68.30;;;;;;5073764;28;20044;-61
2023/08/09 03:32:27;;;;;;;1.90;0.90;;;20.50;68.30;;;;;;5074213;28;20052;-61
2023/08/09 03:34:53;;;;;;;2.35;1.00;;;20.50;68.30;;;;;;5074037;28;20905;-61
2023/08/09 03:37:19;;;;;;;3.05;1.20;;;20.50;68.40;;;;;;5073668;28;20076;-61
2023/08/09 03:39:45;;;;;;;0.90;0.70;;;20.50;68.40;;;;;;5073091;28;20098;-61
2023/08/09 03:42:11;;;;;;;2.33;1.17;;;20.50;68.40;;;;;;5074128;28;20049;-62
2023/08/09 03:44:36;;;;;;;1.58;1.00;;;20.50;68.40;;;;;;5072988;28;20093;-61
2023/08/09 03:47:02;;;;;;;2.40;0.93;;;20.50;68.40;;;;;;5073695;28;20036;-61
2023/08/09 03:49:27;;;;;;;2.33;0.90;;;20.50;68.40;;;;;;5073782;28;20043;-61
2023/08/09 03:51:53;;;;;;;1.85;0.90;;;20.50;68.40;;;;;;5072893;28;20431;-61
2023/08/09 03:54:18;;;;;;;3.10;1.10;;;20.50;68.40;;;;;;5073877;28;20032;-61
2023/08/09 03:56:44;;;;;;;2.50;1.40;;;20.50;68.40;;;;;;5073679;28;20468;-61
2023/08/09 03:59:10;;;;;;;1.35;0.90;;;20.50;68.50;;;;;;5073163;28;20036;-61
2023/08/09 04:01:36;;;;;;;1.77;0.95;;;20.50;68.40;;;;;;5066965;28;20490;-62
2023/08/09 04:04:03;;;;;;;2.40;1.10;;;20.50;68.40;;;;;;5068585;28;20040;-61
2023/08/09 04:06:29;;;;;;;1.73;0.90;;;20.50;68.40;;;;;;5072292;28;20048;-61
2023/08/09 04:08:54;;;;;;;2.53;1.10;;;20.50;68.40;;;;;;5073121;28;20477;-61
2023/08/09 04:11:20;;;;;;;2.47;1.10;;;20.50;68.50;;;;;;5073024;28;20047;-61
2023/08/09 04:13:46;;;;;;;1.30;0.80;;;20.50;68.50;;;;;;5073138;28;20039;-61
2023/08/09 04:16:11;;;;;;;1.25;0.90;;;20.50;68.50;;;;;;5073712;28;20142;-61
2023/08/09 04:18:37;;;;;;;1.63;0.80;;;20.50;68.50;;;;;;5072291;28;20138;-61
2023/08/09 04:21:02;;;;;;;2.33;1.10;;;20.50;68.50;;;;;;5072853;28;20037;-61
2023/08/09 04:23:28;;;;;;;1.83;0.90;;;20.50;68.50;;;;;;5073187;28;20090;-61
2023/08/09 04:25:57;;;;;;;1.67;1.00;;;20.40;68.40;;;;;;5070677;28;20052;-61
2023/08/09 04:28:23;;;;;;;2.33;1.10;;;20.40;68.40;;;;;;5072606;28;20051;-61
2023/08/09 04:30:48;;;;;;;2.25;1.00;;;20.40;69.10;;;;;;5073051;28;20032;-61
2023/08/09 04:33:14;;;;;;;1.50;0.80;;;20.40;68.40;;;;;;5072201;28;20053;-61
2023/08/09 04:35:42;;;;;;;1.42;0.90;;;20.40;68.50;;;;;;5072870;28;20090;-61
2023/08/09 04:38:20;;;;;;;2.75;1.00;;;20.40;68.50;;;;;;5072656;28;20407;-61
2023/08/09 04:40:47;;;;;;;1.52;1.00;;;20.40;68.50;;;;;;5070842;28;20424;-61
2023/08/09 04:43:13;;;;;;;2.67;0.98;;;20.40;68.50;;;;;;5071796;28;20106;-62
2023/08/09 04:45:39;;;;;;;1.50;0.90;;;20.40;68.50;;;;;;5072413;28;20045;-61
2023/08/09 04:48:05;;;;;;;1.20;0.80;;;20.40;68.50;;;;;;5071009;28;20102;-61
2023/08/09 04:50:31;;;;;;;2.42;0.90;;;20.40;68.60;;;;;;5072556;28;20369;-61
2023/08/09 04:52:57;;;;;;;1.15;0.90;;;20.40;68.60;;;;;;5072519;28;20438;-61
2023/08/09 04:55:22;;;;;;;1.88;0.80;;;20.40;68.60;;;;;;5072282;28;20036;-61
2023/08/09 04:57:48;;;;;;;1.88;0.77;;;20.40;68.60;;;;;;5071107;28;20063;-61
2023/08/09 05:00:14;;;;;;;1.05;0.80;;;20.40;68.60;;;;;;5070494;28;20037;-61
2023/08/09 05:02:40;;;;;;;1.05;0.65;;;20.40;68.60;;;;;;5072297;28;20484;-61
2023/08/09 05:05:06;;;;;;;2.03;0.65;;;20.40;68.60;;;;;;5072630;28;20079;-61
2023/08/09 05:07:32;;;;;;;1.67;1.00;;;20.40;68.60;;;;;;5071049;28;20059;-61
2023/08/09 05:09:59;;;;;;;1.80;1.20;;;20.40;68.60;;;;;;5072459;28;20045;-61
2023/08/09 05:12:24;;;;;;;1.80;0.90;;;20.40;68.60;;;;;;5071507;28;20178;-61
2023/08/09 05:14:50;;;;;;;3.33;0.90;;;20.40;68.60;;;;;;5071520;28;20037;-61
2023/08/09 05:17:16;;;;;;;2.97;1.02;;;20.40;68.60;;;;;;5072727;28;20089;-61
2023/08/09 05:19:42;;;;;;;1.55;0.80;;;20.40;68.60;;;;;;5072039;28;20071;-61
2023/08/09 05:22:07;;;;;;;1.75;0.90;;;20.40;68.60;;;;;;5069830;28;20423;-60
2023/08/09 05:24:33;;;;;;;1.73;0.80;;;20.40;68.60;;;;;;5071059;28;20045;-61
2023/08/09 05:26:58;;;;;;;1.95;0.90;;;20.40;68.60;;;;;;5070478;28;20134;-61
2023/08/09 05:29:24;;;;;;;1.52;0.82;;;20.40;68.70;;;;;;5070616;28;20117;-61
2023/08/09 05:31:50;;;;;;;1.95;0.98;;;20.40;68.60;;;;;;5069721;28;20060;-61
2023/08/09 05:34:15;;;;;;;2.20;1.00;;;20.40;68.70;;;;;;5070534;28;20059;-61
2023/08/09 05:36:41;;;;;;;1.33;0.82;;;20.40;68.70;;;;;;5070031;28;20040;-62
2023/08/09 05:39:08;;;;;;;1.38;0.85;;;20.40;68.80;;;;;;5074246;28;20036;-61
2023/08/09 05:41:34;;;;;;;1.63;0.98;;;20.40;68.90;;;;;;5074896;28;20051;-61
2023/08/09 05:43:59;;;;;;;1.40;1.00;;;20.40;68.90;;;;;;5075657;28;20037;-61
2023/08/09 05:46:25;;;;;;;1.67;0.90;;;20.40;69.00;;;;;;5076300;28;20057;-61
2023/08/09 05:48:50;;;;;;;1.58;0.85;;;20.40;68.90;;;;;;5075851;28;20480;-61
2023/08/09 05:51:16;;;;;;;1.58;0.90;;;20.40;68.90;;;;;;5075543;28;20040;-61
2023/08/09 05:53:42;;;;;;;1.80;1.00;;;20.40;69.10;;;;;;5076291;28;20044;-61
2023/08/09 05:56:07;;;;;;;1.45;0.80;;;20.40;69.10;;;;;;5076443;28;20101;-61
2023/08/09 05:58:33;;;;;;;1.98;1.10;;;20.40;69.30;;;;;;5075551;28;20405;-61
2023/08/09 06:00:59;;;;;;;1.23;0.70;;;20.40;69.30;;;;;;5076235;28;20044;-61
2023/08/09 06:03:25;;;;;;;1.40;0.70;;;20.40;69.30;;;;;;5075316;28;20048;-61
2023/08/09 06:05:51;;;;;;;1.10;0.90;;;20.40;69.30;;;;;;5073662;28;20127;-61
2023/08/09 06:08:16;;;;;;;1.05;0.77;;;20.50;69.40;;;;;;5076049;28;20235;-61
2023/08/09 06:10:42;;;;;;;2.03;1.00;;;20.50;69.40;;;;;;5074957;28;20047;-61
2023/08/09 06:13:07;;;;;;;1.45;0.80;;;20.40;69.30;;;;;;5074964;28;20399;-61
2023/08/09 06:15:36;;;;;;;1.73;1.00;;;20.50;69.50;;;;;;5076219;28;20032;-61
2023/08/09 06:18:02;;;;;;;1.40;0.70;;;20.40;69.40;;;;;;5074984;28;20076;-61
2023/08/09 06:20:28;;;;;;;2.03;1.05;;;20.50;69.40;;;;;;5075019;28;20114;-61
2023/08/09 06:22:53;;;;;;;1.65;0.90;;;20.40;69.40;;;;;;5075253;28;20040;-62
2023/08/09 06:25:19;;;;;;;1.75;1.05;;;20.40;69.40;;;;;;5075200;28;20047;-61
2023/08/09 06:27:44;;;;;;;2.22;0.75;;;20.40;69.40;;;;;;5073948;28;20051;-61
2023/08/09 06:30:11;;;;;;;2.15;1.05;;;20.40;69.40;;;;;;5075555;28;20131;-60
2023/08/09 06:32:37;;;;;;;4.03;0.90;;;20.50;69.40;;;;;;5073376;28;20095;-62
2023/08/09 06:35:04;;;;;;;1.77;0.88;;;20.40;69.40;;;;;;5074322;28;20076;-61
2023/08/09 06:37:30;;;;;;;2.27;0.90;;;20.50;69.40;;;;;;5072467;28;20048;-61
2023/08/09 06:39:55;;;;;;;2.47;1.00;;;20.50;69.40;;;;;;5072900;28;20055;-61
2023/08/09 06:42:21;;;;;;;1.95;0.70;;;20.50;69.60;;;;;;5072350;28;20476;-61
2023/08/09 06:44:47;;;;;;;3.00;0.90;;;20.50;69.70;;;;;;5073947;28;20041;-62
2023/08/09 06:47:12;;;;;;;3.03;0.90;;;20.50;69.70;;;;;;5073162;28;20040;-61
2023/08/09 06:49:38;;;;;;;1.70;0.90;;;20.50;69.70;;;;;;5073477;28;20479;-62
2023/08/09 06:52:04;;;;;;;3.72;1.00;;;20.60;69.80;;;;;;5074283;28;20041;-62
2023/08/09 06:54:29;;;;;;;2.20;1.02;;;20.60;69.80;;;;;;5072340;28;20105;-61
2023/08/09 06:56:55;;;;;;;1.98;1.00;;;20.60;69.80;;;;;;5072262;28;20059;-61
2023/08/09 06:59:20;;;;;;;2.65;1.10;;;20.60;69.90;;;;;;5074067;28;20503;-61
2023/08/09 07:01:48;;;;;;;3.00;0.73;;;20.60;69.90;;;;;;5072795;28;20136;-61
2023/08/09 07:04:17;;;;;;;2.70;1.10;;;20.60;69.90;;;;;;5072545;28;20044;-61
2023/08/09 07:06:43;;;;;;;2.72;1.08;;;20.70;70.00;;;;;;5072815;28;20400;-61
2023/08/09 07:09:11;;;;;;;1.75;0.82;;;20.70;70.00;;;;;;5073983;28;20032;-61
2023/08/09 07:11:36;;;;;;;2.83;1.08;;;20.70;70.00;;;;;;5073746;28;20040;-61
2023/08/09 07:14:02;;;;;;;3.13;1.17;;;20.70;70.00;;;;;;5071670;28;20048;-59
2023/08/09 07:16:28;;;;;;;1.17;0.90;;;20.70;70.10;;;;;;5072784;28;20164;-60
2023/08/09 07:18:53;;;;;;;5.18;1.20;;;20.70;70.00;;;;;;5072079;28;20102;-60
2023/08/09 07:21:19;;;;;;;3.38;0.88;;;20.70;69.90;;;;;;5071627;28;20048;-61
2023/08/09 07:23:45;;;;;;;3.25;0.90;;;20.70;69.80;;;;;;5072383;28;20597;-61
2023/08/09 07:26:10;;;;;;;3.20;0.93;;;20.80;69.90;;;;;;5072013;28;20453;-62
2023/08/09 07:28:36;;;;;;;2.60;1.05;;;20.80;69.80;;;;;;5072492;28;20041;-60
2023/08/09 07:31:01;;;;;;;1.60;1.00;;;20.70;69.80;;;;;;5073614;28;20059;-61
2023/08/09 07:33:27;;;;;;;2.53;1.08;;;20.80;70.00;;;;;;5037149;28;1054052;-60
2023/08/09 07:35:53;;;;;;;2.55;1.15;;;20.80;70.00;;;;;;5073591;28;20994;-60
2023/08/09 07:38:19;;;;;;;3.65;0.95;;;20.80;70.00;;;;;;5074612;28;20040;-62
2023/08/09 07:40:45;;;;;;;1.35;0.80;;;20.80;70.00;;;;;;5074130;28;20071;-62
2023/08/09 07:43:11;;;;;;;4.18;1.08;;;20.80;69.90;;;;;;5073631;28;20045;-62
2023/08/09 07:45:37;;;;;;;3.80;1.10;;;20.80;70.00;;;;;;5074039;28;20067;-62
2023/08/09 07:48:02;;;;;;;4.88;1.20;;;20.80;69.90;;;;;;5074391;28;20048;-62
2023/08/09 07:50:28;;;;;;;3.35;1.10;;;20.90;69.80;;;;;;5106118;28;20044;-62
2023/08/09 07:52:54;;;;;;;4.32;1.10;;;20.80;69.80;;;;;;5074054;28;20052;-62
2023/08/09 07:55:19;;;;;;;3.00;1.13;;;20.90;69.80;;;;;;5074291;28;20051;-62
2023/08/09 07:57:45;;;;;;;2.67;0.93;;;20.90;70.40;;;;;;5072758;28;20055;-61
2023/08/09 08:00:17;;;;;;;2.03;0.88;;;20.90;69.80;;;;;;5073713;28;20040;-62
2023/08/09 08:02:43;;;;;;;3.33;0.85;;;20.90;69.80;;;;;;5072398;28;20044;-61
2023/08/09 08:05:11;;;;;;;3.78;1.15;;;20.90;69.70;;;;;;5072564;28;20036;-62
2023/08/09 08:07:40;;;;;;;3.25;0.98;;;20.90;69.60;;;;;;5053192;28;20051;-62
2023/08/09 08:10:08;;;;;;;3.47;0.80;;;21.00;69.60;;;;;;5052763;28;20097;-62
2023/08/09 08:12:35;;;;;;;2.60;0.90;;;21.00;69.50;;;;;;5051775;28;20049;-61
2023/08/09 08:15:00;;;;;;;3.38;0.85;;;21.00;69.50;;;;;;5053852;28;20048;-62
2023/08/09 08:17:26;;;;;;;2.92;1.00;;;21.00;69.60;;;;;;5052906;28;20037;-62
2023/08/09 08:19:52;;;;;;;3.15;1.00;;;21.10;69.60;;;;;;5052005;28;20045;-61
2023/08/09 08:22:18;;;;;;;3.25;0.90;;;21.00;69.50;;;;;;5053331;28;20131;-62
2023/08/09 08:24:44;;;;;;;5.15;1.20;;;21.10;69.60;;;;;;5057610;28;20115;-61
2023/08/09 08:27:09;;;;;;;2.85;1.02;;;21.10;69.60;;;;;;5062588;28;20053;-61
2023/08/09 08:29:35;;;;;;;2.50;0.73;;;21.10;69.60;;;;;;5052964;28;20055;-62
2023/08/09 08:32:00;;;;;;;2.55;0.90;;;21.10;69.50;;;;;;5052464;28;20064;-62
2023/08/09 08:34:31;;;;;;;3.65;1.10;;;21.20;69.60;;;;;;5053020;28;20029;-62
2023/08/09 08:36:58;;;;;;;3.20;0.90;;;21.20;69.50;;;;;;5085020;28;20059;-62
2023/08/09 08:39:23;;;;;;;1.75;0.80;;;21.20;69.50;;;;;;5084549;28;20045;-63
2023/08/09 08:41:50;;;;;;;3.00;0.82;;;21.20;69.40;;;;;;5084715;28;20071;-62
2023/08/09 08:44:15;;;;;;;3.03;0.98;;;21.20;69.40;;;;;;5053313;28;20084;-62
2023/08/09 08:46:41;;;;;;;3.28;0.70;;;21.20;69.40;;;;;;5051759;28;20434;-62
2023/08/09 08:49:09;;;;;;;4.90;1.00;;;21.20;69.30;;;;;;5068200;28;20439;-62
2023/08/09 08:51:35;;;;;;;;;;;21.30;69.40;;;;;;5068313;28;20056;-62
2023/08/09 08:54:00;;;;;;;2.85;0.85;;;21.20;69.40;;;;;;5050864;28;19920;-62
2023/08/09 08:56:26;;;;;;;1.30;0.70;;;21.30;69.30;;;;;;5068389;28;20037;-62
2023/08/09 08:58:52;;;;;;;4.65;1.17;;;21.30;69.30;;;;;;5052691;28;20404;-62
2023/08/09 09:01:18;;;;;;;2.75;0.82;;;21.30;69.30;;;;;;5084236;28;20041;-62
2023/08/09 09:03:44;;;;;;;2.17;0.80;;;21.30;69.30;;;;;;5052345;28;20439;-62
2023/08/09 09:06:10;;;;;;;2.72;0.80;;;21.30;69.30;;;;;;5068140;28;20480;-62
2023/08/09 09:08:42;;;;;;;1.63;0.70;;;21.30;69.30;;;;;;5051803;28;20507;-62
2023/08/09 09:11:26;;;;;;;2.53;0.88;;;21.30;69.20;;;;;;5052648;28;20484;-62
2023/08/09 09:13:52;;;;;;;3.45;1.00;;;21.30;69.10;;;;;;5051662;28;20045;-62
2023/08/09 09:16:18;;;;;;;2.28;0.80;;;21.40;69.10;;;;;;5052672;28;20431;-62
2023/08/09 09:18:46;;;;;;;2.45;0.95;;;21.40;69.10;;;;;;5052348;28;20075;-62
2023/08/09 09:21:11;;;;;;;2.30;0.83;;;21.40;69.00;;;;;;5051495;28;20484;-62
2023/08/09 09:23:37;;;;;;;2.78;1.10;;;21.40;69.00;;;;;;5054868;28;20312;-62
2023/08/09 09:26:07;;;;;;;2.80;1.10;;;21.40;68.90;;;;;;5061313;28;20466;-62
2023/08/09 09:28:39;;;;;;;1.83;0.70;;;21.40;68.90;;;;;;5052731;28;20049;-62
2023/08/09 09:31:05;;;;;;;2.22;0.70;;;21.40;68.90;;;;;;5063840;28;20051;-62
2023/08/09 09:33:35;;;;;;;1.55;0.80;;;21.40;68.80;;;;;;5072451;28;20041;-62
2023/08/09 09:36:01;;;;;;;0.98;0.60;;;21.50;68.80;;;;;;5071387;28;20055;-62
2023/08/09 09:38:27;;;;;;;2.67;0.75;;;21.40;68.70;;;;;;5070889;28;20041;-63
2023/08/09 09:40:53;;;;;;;2.15;0.90;;;21.50;68.80;;;;;;5072048;28;20040;-62
2023/08/09 09:43:18;;;;;;;1.58;0.68;;;21.50;68.70;;;;;;5072054;28;20414;-62
2023/08/09 09:45:45;;;;;;;1.60;0.68;;;21.50;68.70;;;;;;5070881;28;20029;-62
2023/08/09 09:48:18;;;;;;;2.40;0.80;;;21.50;68.60;;;;;;5071947;28;20496;-62
2023/08/09 09:50:43;;;;;;;2.60;0.90;;;21.50;68.50;;;;;;5071235;28;20480;-62
2023/08/09 09:53:13;;;;;;;1.38;0.60;;;21.50;68.40;;;;;;5072302;28;20047;-62
2023/08/09 09:55:39;;;;;;;3.78;0.82;;;21.50;68.40;;;;;;5070169;28;20045;-63
2023/08/09 09:58:04;;;;;;;3.33;0.80;;;21.50;68.40;;;;;;5071236;28;20040;-63
2023/08/09 10:00:31;;;;;;;1.42;0.73;;;21.50;68.30;;;;;;5072601;28;20036;-63
2023/08/09 10:03:01;;;;;;;1.47;0.60;;;21.50;68.20;;;;;;5071177;28;20041;-63
2023/08/09 10:05:39;;;;;;;1.63;0.70;;;21.60;68.20;;;;;;5070815;28;20048;-62
2023/08/09 10:08:07;;;;;;;1.92;0.90;;;21.60;68.60;;;;;;5071161;28;20139;-62
2023/08/09 10:10:33;;;;;;;1.90;0.82;;;21.60;68.00;;;;;;5053920;28;20119;-63
2023/08/09 10:12:59;;;;;;;2.03;0.88;;;21.50;67.90;;;;;;5071880;28;20115;-62
2023/08/09 10:15:29;;;;;;;2.15;0.70;;;21.50;67.80;;;;;;5070882;28;20120;-63
2023/08/09 10:17:58;;;;;;;3.97;0.77;;;21.50;67.90;;;;;;5070081;28;20396;-63
2023/08/09 10:20:24;;;;;;;1.55;0.65;;;21.50;67.90;;;;;;5071304;28;20045;-63
2023/08/09 10:22:50;;;;;;;1.27;0.68;;;21.50;67.90;;;;;;5069543;28;20036;-62
2023/08/09 10:25:15;;;;;;;2.38;0.63;;;21.50;67.90;;;;;;5070492;28;20047;-60
2023/08/09 10:27:53;;;;;;;3.35;0.70;;;21.50;68.70;;;;;;5074984;28;20047;-60
2023/08/09 10:30:19;;;;;;;3.40;1.00;;;21.50;68.30;;;;;;5075004;28;20066;-60
2023/08/09 10:32:52;;;;;;;2.53;1.10;;;21.40;68.40;;;;;;5072887;28;20539;-60
2023/08/09 10:35:41;;;;;;;3.25;0.90;;;21.40;68.30;;;;;;5074414;28;20051;-60
2023/08/09 10:38:07;;;;;;;1.70;0.90;;;21.40;68.30;;;;;;5073863;28;20048;-61
2023/08/09 10:40:35;;;;;;;3.53;0.90;;;21.40;68.10;;;;;;5070904;28;20062;-61
2023/08/09 10:43:01;;;;;;;;;;;21.40;67.80;;;;;;5075592;28;20045;-62
2023/08/09 10:45:26;;;;;;;4.13;1.10;;;21.40;67.20;;;;;;5074166;28;19927;-61
2023/08/09 10:47:52;;;;;;;2.35;0.82;;;21.40;67.40;;;;;;5056990;28;20055;-61
2023/08/09 10:50:18;;;;;;;3.35;1.17;;;21.40;67.00;;;;;;5073135;28;20123;-61
2023/08/09 10:52:50;;;;;;;5.05;1.10;;;21.40;66.80;;;;;;5073947;28;20037;-61
2023/08/09 10:55:18;;;;;;;3.72;1.17;;;21.40;66.70;;;;;;5074938;28;20086;-62
2023/08/09 10:57:44;;;;;;;2.45;1.00;;;21.40;66.70;;;;;;5074633;28;20467;-62
2023/08/09 11:00:14;;;;;;;4.47;1.00;;;21.40;66.70;;;;;;5074161;28;20086;-63
2023/08/09 11:02:46;;;;;;;5.30;1.30;;;21.40;66.60;;;;;;5073399;28;20049;-65
2023/08/09 11:05:12;;;;;;;4.45;1.15;;;21.40;66.60;;;;;;5074533;28;20140;-61
2023/08/09 11:07:53;;;;;;;3.15;1.00;;;21.40;66.70;;;;;;5073581;28;20543;-62
2023/08/09 11:10:32;;;;;;;7.40;1.33;;;21.40;66.60;;;;;;5074469;28;20483;-62
2023/08/09 11:13:01;;;;;;;5.65;1.52;;;21.40;66.60;;;;;;5073712;28;20047;-62
2023/08/09 11:15:27;;;;;;;4.03;1.13;;;21.40;66.60;;;;;;5073580;28;20055;-62
2023/08/09 11:17:53;;;;;;;3.45;1.27;;;21.40;66.50;;;;;;5073773;28;20387;-62
2023/08/09 11:20:19;;;;;;;2.78;1.30;;;21.40;66.40;;;;;;5062803;28;20507;-62
2023/08/09 11:22:55;;;;;;;4.40;1.30;;;21.40;66.40;;;;;;5074426;28;20044;-62
2023/08/09 11:25:21;;;;;;;5.75;1.10;;;21.40;66.40;;;;;;5063457;28;20036;-62
2023/08/09 11:27:50;;;;;;;5.20;1.15;;;21.40;66.30;;;;;;5073149;28;20044;-61
2023/08/09 11:30:15;;;;;;;3.38;1.10;;;21.40;66.30;;;;;;5074065;28;20438;-63
2023/08/09 11:32:41;;;;;;;8.20;1.05;;;21.40;66.20;;;;;;5073337;28;20537;-62
2023/08/09 11:35:08;;;;;;;5.07;1.10;;;21.40;66.00;;;;;;5073048;28;20048;-62
2023/08/09 11:37:34;;;;;;;4.70;1.02;;;21.40;65.90;;;;;;5072932;28;20040;-62
2023/08/09 11:39:59;;;;;;;5.35;1.20;;;21.50;65.90;;;;;;5074227;28;20131;-63
2023/08/09 11:42:25;;;;;;;5.22;1.13;;;21.50;65.90;;;;;;5073402;28;20048;-63
2023/08/09 11:44:51;;;;;;;7.15;1.15;;;21.50;65.80;;;;;;5073361;28;20120;-62
2023/08/09 11:47:16;;;;;;;4.25;1.10;;;21.50;65.80;;;;;;5072805;28;20037;-62
2023/08/09 11:49:43;;;;;;;3.47;1.00;;;21.50;65.80;;;;;;5072766;28;20048;-63
2023/08/09 11:52:13;;;;;;;3.97;1.10;;;21.50;65.80;;;;;;5073883;28;20076;-62
2023/08/09 11:54:39;;;;;;;3.25;1.00;;;21.60;65.80;;;;;;5073502;28;20093;-63
2023/08/09 11:57:06;;;;;;;4.03;0.90;;;21.50;65.70;;;;;;5055151;28;20045;-62
2023/08/09 11:59:32;;;;;;;5.53;1.02;;;21.60;65.80;;;;;;5073809;28;20087;-63
2023/08/09 12:01:58;;;;;;;4.43;0.90;;;21.60;65.80;;;;;;5073564;28;20534;-62
2023/08/09 12:04:25;;;;;;;4.68;0.93;;;21.60;65.70;;;;;;5072839;28;20163;-63
2023/08/09 12:06:57;;;;;;;3.50;1.00;;;21.60;65.80;;;;;;5073046;28;20059;-63
2023/08/09 12:09:36;;;;;;;3.28;1.08;;;21.60;65.60;;;;;;5073015;28;20028;-62
2023/08/09 12:12:06;;;;;;;3.35;1.00;;;21.60;65.70;;;;;;5073427;28;20500;-62
2023/08/09 12:14:32;;;;;;;2.60;1.08;;;21.70;65.70;;;;;;5073573;28;20086;-63
2023/08/09 12:16:58;;;;;;;3.33;1.23;;;21.70;65.60;;;;;;5072222;28;20389;-62
2023/08/09 12:19:24;;;;;;;2.97;1.10;;;21.70;65.60;;;;;;5073051;28;20507;-62
2023/08/09 12:21:49;;;;;;;3.72;1.00;;;21.70;65.50;;;;;;5073241;28;20124;-63
2023/08/09 12:24:15;;;;;;;2.80;1.00;;;21.70;65.50;;;;;;5071046;28;20036;-62
2023/08/09 12:26:41;;;;;;;5.35;1.23;;;21.70;65.50;;;;;;5072691;28;20617;-63
2023/08/09 12:29:07;;;;;;;3.35;1.05;;;21.70;65.50;;;;;;5073015;28;20040;-62
2023/08/09 12:31:33;;;;;;;2.08;0.98;;;21.70;65.50;;;;;;5072093;28;20079;-62
2023/08/09 12:33:59;;;;;;;2.88;1.00;;;21.70;65.50;;;;;;5073045;28;20381;-63
2023/08/09 12:36:24;;;;;;;3.58;0.88;;;21.70;65.50;;;;;;5073003;28;20495;-63
2023/08/09 12:38:50;;;;;;;3.25;1.10;;;21.80;65.50;;;;;;5071952;28;20106;-62
2023/08/09 12:41:15;;;;;;;2.30;1.13;;;21.70;65.50;;;;;;5073026;28;20051;-63
2023/08/09 12:43:41;;;;;;;3.33;1.10;;;21.70;65.50;;;;;;5071427;28;20534;-63
2023/08/09 12:46:06;;;;;;;2.75;1.20;;;21.70;65.60;;;;;;5071953;28;20036;-62